Главная страница
METAR-TAF:

METAR-TAF

Аэропорты :

NWS Office

Понпеи, Микронезия

широта: 06-58N, долгота: 158-13E, высота над уровнем моря: 39 м

Текущие метеонаблюдения

Эта сводка был подготовлена 52 минут назад, в 15:50 UTC
Ветер 3 Узел от юго-восточный
Температура 26°C
Влажность 94%
Давление 1011 hPa
Видимость: 19.3 км
Рассеянная облачность на высоте 1700 фута, мощно-кучевые.
Сплошная облачность на высоте 13000 фута
небольшие ливневые дожди

METAR: PTTP 141550Z 13003KT 12SM -SHRA BKN017TCU OVC130 26/25 A2986 RMK SHRAE19B44 TCU ALQDS SLP111 T02600252

Время: 03:42 (16:42 UTC)


TAF: отсутствует

Метеонаблюдения и прогнозы для более 4000 аэропортов (сводки METAR и TAF).

Имеющиеся станции представлены на карте желтыми и красными точками.

Чтобы увидеть название станции, наведите на нее мышь.

Затем щелкните, чтобы увидеть метеонаблюдения и метеопрогнозы.

Управление картой: чтобы увеличить масштаб, щелкните зеленые кнопки с черным крестиком; чтобы уменьшить масштаб, щелкните зеленую кнопку с тире; для просмотра соседних карт щелкайте зеленые стрелки.


METAR-TAF: